sensor_id;sensor_type;location;lat;lon;timestamp;P1;durP1;ratioP1;P2;durP2;ratioP2
54416;SDS011;40326;51.220;7.250;2023-01-10T00:00:36;23.00;;;13.82;;
54416;SDS011;40326;51.220;7.250;2023-01-10T00:03:02;21.67;;;13.98;;
54416;SDS011;40326;51.220;7.250;2023-01-10T00:05:27;23.27;;;12.73;;
54416;SDS011;40326;51.220;7.250;2023-01-10T00:07:52;19.75;;;13.02;;
54416;SDS011;40326;51.220;7.250;2023-01-10T00:10:17;23.00;;;13.70;;
54416;SDS011;40326;51.220;7.250;2023-01-10T00:12:43;23.17;;;12.63;;
54416;SDS011;40326;51.220;7.250;2023-01-10T00:15:26;22.15;;;13.45;;
54416;SDS011;40326;51.220;7.250;2023-01-10T00:17:51;26.00;;;14.52;;
54416;SDS011;40326;51.220;7.250;2023-01-10T00:20:17;24.83;;;14.05;;
54416;SDS011;40326;51.220;7.250;2023-01-10T00:22:42;18.65;;;12.70;;
54416;SDS011;40326;51.220;7.250;2023-01-10T00:25:09;22.80;;;13.88;;
54416;SDS011;40326;51.220;7.250;2023-01-10T00:27:34;19.90;;;13.70;;
54416;SDS011;40326;51.220;7.250;2023-01-10T00:30:03;27.65;;;13.85;;
54416;SDS011;40326;51.220;7.250;2023-01-10T00:32:39;18.92;;;12.68;;
54416;SDS011;40326;51.220;7.250;2023-01-10T00:35:04;26.02;;;12.43;;
54416;SDS011;40326;51.220;7.250;2023-01-10T00:37:30;25.63;;;13.40;;
54416;SDS011;40326;51.220;7.250;2023-01-10T00:39:55;22.00;;;12.45;;
54416;SDS011;40326;51.220;7.250;2023-01-10T00:42:21;22.13;;;13.73;;
54416;SDS011;40326;51.220;7.250;2023-01-10T00:45:09;24.83;;;13.52;;
54416;SDS011;40326;51.220;7.250;2023-01-10T00:47:35;21.58;;;13.38;;
54416;SDS011;40326;51.220;7.250;2023-01-10T00:50:01;22.63;;;14.15;;
54416;SDS011;40326;51.220;7.250;2023-01-10T00:52:29;24.75;;;13.75;;
54416;SDS011;40326;51.220;7.250;2023-01-10T00:54:54;24.90;;;13.83;;
54416;SDS011;40326;51.220;7.250;2023-01-10T00:57:20;19.40;;;11.98;;
54416;SDS011;40326;51.220;7.250;2023-01-10T00:59:45;21.38;;;11.93;;
54416;SDS011;40326;51.220;7.250;2023-01-10T01:02:10;17.73;;;13.50;;
54416;SDS011;40326;51.220;7.250;2023-01-10T01:04:35;23.80;;;12.98;;
54416;SDS011;40326;51.220;7.250;2023-01-10T01:07:00;18.50;;;11.95;;
54416;SDS011;40326;51.220;7.250;2023-01-10T01:09:26;18.25;;;11.38;;
54416;SDS011;40326;51.220;7.250;2023-01-10T01:11:52;20.75;;;12.25;;
54416;SDS011;40326;51.220;7.250;2023-01-10T01:14:17;21.08;;;12.02;;
54416;SDS011;40326;51.220;7.250;2023-01-10T01:16:42;20.52;;;11.32;;
54416;SDS011;40326;51.220;7.250;2023-01-10T01:19:07;19.73;;;11.70;;
54416;SDS011;40326;51.220;7.250;2023-01-10T01:21:32;19.15;;;11.20;;
54416;SDS011;40326;51.220;7.250;2023-01-10T01:23:58;18.00;;;11.18;;
54416;SDS011;40326;51.220;7.250;2023-01-10T01:26:23;20.40;;;11.38;;
54416;SDS011;40326;51.220;7.250;2023-01-10T01:28:49;19.73;;;10.30;;
54416;SDS011;40326;51.220;7.250;2023-01-10T01:31:14;17.92;;;9.70;;
54416;SDS011;40326;51.220;7.250;2023-01-10T01:33:39;24.85;;;9.45;;
54416;SDS011;40326;51.220;7.250;2023-01-10T01:36:08;18.20;;;9.10;;
54416;SDS011;40326;51.220;7.250;2023-01-10T01:38:34;21.75;;;9.50;;
54416;SDS011;40326;51.220;7.250;2023-01-10T01:40:59;16.23;;;9.57;;
54416;SDS011;40326;51.220;7.250;2023-01-10T01:43:25;18.50;;;9.67;;
54416;SDS011;40326;51.220;7.250;2023-01-10T01:45:51;15.60;;;8.77;;
54416;SDS011;40326;51.220;7.250;2023-01-10T01:53:28;13.75;;;9.75;;
54416;SDS011;40326;51.220;7.250;2023-01-10T01:55:56;17.58;;;9.40;;
54416;SDS011;40326;51.220;7.250;2023-01-10T01:58:23;17.55;;;8.77;;
54416;SDS011;40326;51.220;7.250;2023-01-10T02:00:51;14.63;;;8.18;;
54416;SDS011;40326;51.220;7.250;2023-01-10T02:03:16;19.88;;;7.90;;
54416;SDS011;40326;51.220;7.250;2023-01-10T02:05:41;13.35;;;7.40;;
54416;SDS011;40326;51.220;7.250;2023-01-10T02:08:07;14.57;;;7.47;;
54416;SDS011;40326;51.220;7.250;2023-01-10T02:10:48;10.68;;;6.25;;
54416;SDS011;40326;51.220;7.250;2023-01-10T02:13:17;15.25;;;6.60;;
54416;SDS011;40326;51.220;7.250;2023-01-10T02:15:43;15.13;;;6.50;;
54416;SDS011;40326;51.220;7.250;2023-01-10T02:18:08;13.15;;;6.07;;
54416;SDS011;40326;51.220;7.250;2023-01-10T02:20:50;12.82;;;5.80;;
54416;SDS011;40326;51.220;7.250;2023-01-10T02:33:37;17.92;;;5.53;;
54416;SDS011;40326;51.220;7.250;2023-01-10T02:36:09;12.98;;;5.28;;
54416;SDS011;40326;51.220;7.250;2023-01-10T02:39:20;14.02;;;5.00;;
54416;SDS011;40326;51.220;7.250;2023-01-10T02:43:53;14.93;;;4.80;;
54416;SDS011;40326;51.220;7.250;2023-01-10T02:46:24;16.83;;;4.95;;
54416;SDS011;40326;51.220;7.250;2023-01-10T02:48:51;13.32;;;5.50;;
54416;SDS011;40326;51.220;7.250;2023-01-10T02:51:18;12.57;;;4.88;;
54416;SDS011;40326;51.220;7.250;2023-01-10T02:53:46;12.52;;;6.13;;
54416;SDS011;40326;51.220;7.250;2023-01-10T03:01:36;15.25;;;4.85;;
54416;SDS011;40326;51.220;7.250;2023-01-10T03:04:11;14.07;;;4.70;;
54416;SDS011;40326;51.220;7.250;2023-01-10T03:06:51;17.60;;;4.82;;
54416;SDS011;40326;51.220;7.250;2023-01-10T03:11:45;14.27;;;4.82;;
54416;SDS011;40326;51.220;7.250;2023-01-10T03:14:21;16.08;;;4.65;;
54416;SDS011;40326;51.220;7.250;2023-01-10T03:16:49;10.75;;;4.43;;
54416;SDS011;40326;51.220;7.250;2023-01-10T03:19:16;12.13;;;3.92;;
54416;SDS011;40326;51.220;7.250;2023-01-10T03:21:44;13.73;;;4.70;;
54416;SDS011;40326;51.220;7.250;2023-01-10T03:24:17;14.57;;;4.20;;
54416;SDS011;40326;51.220;7.250;2023-01-10T03:26:50;14.13;;;4.15;;
54416;SDS011;40326;51.220;7.250;2023-01-10T03:29:18;17.05;;;4.47;;
54416;SDS011;40326;51.220;7.250;2023-01-10T03:31:50;10.95;;;4.20;;
54416;SDS011;40326;51.220;7.250;2023-01-10T03:34:16;14.00;;;4.60;;
54416;SDS011;40326;51.220;7.250;2023-01-10T03:44:35;17.13;;;5.15;;
54416;SDS011;40326;51.220;7.250;2023-01-10T03:47:09;14.40;;;4.22;;
54416;SDS011;40326;51.220;7.250;2023-01-10T03:49:36;17.83;;;4.72;;
54416;SDS011;40326;51.220;7.250;2023-01-10T03:52:02;18.27;;;4.90;;
54416;SDS011;40326;51.220;7.250;2023-01-10T03:54:28;16.60;;;5.68;;
54416;SDS011;40326;51.220;7.250;2023-01-10T03:56:53;15.85;;;5.45;;
54416;SDS011;40326;51.220;7.250;2023-01-10T03:59:20;12.65;;;4.70;;
54416;SDS011;40326;51.220;7.250;2023-01-10T04:01:46;15.25;;;4.60;;
54416;SDS011;40326;51.220;7.250;2023-01-10T04:04:11;11.77;;;4.05;;
54416;SDS011;40326;51.220;7.250;2023-01-10T04:06:36;13.95;;;4.10;;
54416;SDS011;40326;51.220;7.250;2023-01-10T04:09:02;11.15;;;4.03;;
54416;SDS011;40326;51.220;7.250;2023-01-10T04:11:27;12.43;;;3.80;;
54416;SDS011;40326;51.220;7.250;2023-01-10T04:13:52;13.63;;;4.00;;
54416;SDS011;40326;51.220;7.250;2023-01-10T04:16:17;16.05;;;4.05;;
54416;SDS011;40326;51.220;7.250;2023-01-10T04:18:44;14.45;;;3.40;;
54416;SDS011;40326;51.220;7.250;2023-01-10T04:21:09;13.93;;;3.60;;
54416;SDS011;40326;51.220;7.250;2023-01-10T04:23:34;12.13;;;3.57;;
54416;SDS011;40326;51.220;7.250;2023-01-10T04:25:59;11.88;;;3.35;;
54416;SDS011;40326;51.220;7.250;2023-01-10T04:28:24;14.23;;;3.55;;
54416;SDS011;40326;51.220;7.250;2023-01-10T04:30:50;16.77;;;4.07;;
54416;SDS011;40326;51.220;7.250;2023-01-10T04:33:15;12.23;;;4.10;;
54416;SDS011;40326;51.220;7.250;2023-01-10T04:35:41;15.65;;;3.95;;
54416;SDS011;40326;51.220;7.250;2023-01-10T04:38:10;12.18;;;3.80;;
54416;SDS011;40326;51.220;7.250;2023-01-10T04:40:35;14.13;;;3.60;;
54416;SDS011;40326;51.220;7.250;2023-01-10T04:43:00;13.53;;;3.57;;
54416;SDS011;40326;51.220;7.250;2023-01-10T04:45:26;13.43;;;3.30;;
54416;SDS011;40326;51.220;7.250;2023-01-10T04:47:51;14.83;;;3.77;;
54416;SDS011;40326;51.220;7.250;2023-01-10T04:50:16;14.02;;;3.85;;
54416;SDS011;40326;51.220;7.250;2023-01-10T04:52:41;12.75;;;3.65;;
54416;SDS011;40326;51.220;7.250;2023-01-10T04:55:07;11.73;;;3.33;;
54416;SDS011;40326;51.220;7.250;2023-01-10T04:57:33;12.15;;;3.30;;
54416;SDS011;40326;51.220;7.250;2023-01-10T04:59:58;14.52;;;3.97;;
54416;SDS011;40326;51.220;7.250;2023-01-10T05:02:23;12.02;;;3.80;;
54416;SDS011;40326;51.220;7.250;2023-01-10T05:04:48;13.48;;;3.75;;
54416;SDS011;40326;51.220;7.250;2023-01-10T05:07:14;16.30;;;4.85;;
54416;SDS011;40326;51.220;7.250;2023-01-10T05:09:39;12.27;;;3.23;;
54416;SDS011;40326;51.220;7.250;2023-01-10T05:12:04;14.20;;;3.40;;
54416;SDS011;40326;51.220;7.250;2023-01-10T05:14:30;16.45;;;4.03;;
54416;SDS011;40326;51.220;7.250;2023-01-10T05:16:55;14.93;;;3.60;;
54416;SDS011;40326;51.220;7.250;2023-01-10T05:19:20;14.15;;;4.15;;
54416;SDS011;40326;51.220;7.250;2023-01-10T05:21:45;15.23;;;4.45;;
54416;SDS011;40326;51.220;7.250;2023-01-10T05:24:11;12.98;;;4.20;;
54416;SDS011;40326;51.220;7.250;2023-01-10T05:26:36;13.18;;;5.53;;
54416;SDS011;40326;51.220;7.250;2023-01-10T05:29:01;14.07;;;4.60;;
54416;SDS011;40326;51.220;7.250;2023-01-10T05:31:26;15.10;;;4.65;;
54416;SDS011;40326;51.220;7.250;2023-01-10T05:33:51;17.13;;;5.07;;
54416;SDS011;40326;51.220;7.250;2023-01-10T05:36:17;16.80;;;6.30;;
54416;SDS011;40326;51.220;7.250;2023-01-10T05:38:43;19.25;;;4.95;;
54416;SDS011;40326;51.220;7.250;2023-01-10T05:41:08;11.77;;;4.93;;
54416;SDS011;40326;51.220;7.250;2023-01-10T05:43:33;17.15;;;5.22;;
54416;SDS011;40326;51.220;7.250;2023-01-10T05:45:58;14.88;;;5.13;;
54416;SDS011;40326;51.220;7.250;2023-01-10T05:48:24;17.77;;;5.85;;
54416;SDS011;40326;51.220;7.250;2023-01-10T05:50:49;23.40;;;5.20;;
54416;SDS011;40326;51.220;7.250;2023-01-10T05:53:15;18.75;;;5.80;;
54416;SDS011;40326;51.220;7.250;2023-01-10T05:55:40;16.60;;;5.85;;
54416;SDS011;40326;51.220;7.250;2023-01-10T05:58:05;18.48;;;6.32;;
54416;SDS011;40326;51.220;7.250;2023-01-10T06:00:30;18.58;;;5.93;;
54416;SDS011;40326;51.220;7.250;2023-01-10T06:02:56;27.42;;;7.13;;
54416;SDS011;40326;51.220;7.250;2023-01-10T06:05:22;18.73;;;6.45;;
54416;SDS011;40326;51.220;7.250;2023-01-10T06:07:47;19.38;;;6.65;;
54416;SDS011;40326;51.220;7.250;2023-01-10T06:10:12;13.73;;;5.40;;
54416;SDS011;40326;51.220;7.250;2023-01-10T06:12:38;19.15;;;6.38;;
54416;SDS011;40326;51.220;7.250;2023-01-10T06:15:04;14.35;;;5.35;;
54416;SDS011;40326;51.220;7.250;2023-01-10T06:17:29;17.48;;;5.68;;
54416;SDS011;40326;51.220;7.250;2023-01-10T06:19:54;11.10;;;5.28;;
54416;SDS011;40326;51.220;7.250;2023-01-10T06:22:20;18.02;;;5.60;;
54416;SDS011;40326;51.220;7.250;2023-01-10T06:24:45;21.98;;;6.07;;
54416;SDS011;40326;51.220;7.250;2023-01-10T06:27:10;21.17;;;5.47;;
54416;SDS011;40326;51.220;7.250;2023-01-10T06:29:35;18.52;;;5.82;;
54416;SDS011;40326;51.220;7.250;2023-01-10T06:32:01;17.23;;;5.15;;
54416;SDS011;40326;51.220;7.250;2023-01-10T06:34:26;13.90;;;5.30;;
54416;SDS011;40326;51.220;7.250;2023-01-10T06:36:51;19.65;;;6.25;;
54416;SDS011;40326;51.220;7.250;2023-01-10T06:39:16;18.00;;;5.15;;
54416;SDS011;40326;51.220;7.250;2023-01-10T06:41:41;12.40;;;5.05;;
54416;SDS011;40326;51.220;7.250;2023-01-10T06:44:07;12.55;;;5.03;;
54416;SDS011;40326;51.220;7.250;2023-01-10T06:46:32;18.73;;;6.13;;
54416;SDS011;40326;51.220;7.250;2023-01-10T06:48:57;20.40;;;5.43;;
54416;SDS011;40326;51.220;7.250;2023-01-10T06:51:22;20.00;;;6.18;;
54416;SDS011;40326;51.220;7.250;2023-01-10T06:53:48;21.92;;;6.50;;
54416;SDS011;40326;51.220;7.250;2023-01-10T06:56:13;17.58;;;5.15;;
54416;SDS011;40326;51.220;7.250;2023-01-10T06:58:38;13.50;;;5.55;;
54416;SDS011;40326;51.220;7.250;2023-01-10T07:01:04;19.25;;;6.18;;
54416;SDS011;40326;51.220;7.250;2023-01-10T07:03:30;17.95;;;5.90;;
54416;SDS011;40326;51.220;7.250;2023-01-10T07:05:55;19.13;;;6.30;;
54416;SDS011;40326;51.220;7.250;2023-01-10T07:08:23;17.90;;;5.60;;
54416;SDS011;40326;51.220;7.250;2023-01-10T07:10:49;23.77;;;5.75;;
54416;SDS011;40326;51.220;7.250;2023-01-10T07:13:14;22.67;;;5.75;;
54416;SDS011;40326;51.220;7.250;2023-01-10T07:15:39;19.70;;;6.00;;
54416;SDS011;40326;51.220;7.250;2023-01-10T07:18:04;19.80;;;6.50;;
54416;SDS011;40326;51.220;7.250;2023-01-10T07:20:29;21.55;;;6.63;;
54416;SDS011;40326;51.220;7.250;2023-01-10T07:22:55;19.40;;;6.82;;
54416;SDS011;40326;51.220;7.250;2023-01-10T07:25:21;23.08;;;6.90;;
54416;SDS011;40326;51.220;7.250;2023-01-10T07:27:46;22.42;;;7.13;;
54416;SDS011;40326;51.220;7.250;2023-01-10T07:30:12;20.83;;;5.20;;
54416;SDS011;40326;51.220;7.250;2023-01-10T07:32:37;24.50;;;6.40;;
54416;SDS011;40326;51.220;7.250;2023-01-10T07:35:02;24.17;;;5.95;;
54416;SDS011;40326;51.220;7.250;2023-01-10T07:37:27;21.15;;;5.68;;
54416;SDS011;40326;51.220;7.250;2023-01-10T07:39:53;26.25;;;6.00;;
54416;SDS011;40326;51.220;7.250;2023-01-10T07:42:18;26.10;;;6.60;;
54416;SDS011;40326;51.220;7.250;2023-01-10T07:44:43;18.25;;;6.60;;
54416;SDS011;40326;51.220;7.250;2023-01-10T07:47:08;24.00;;;6.90;;
54416;SDS011;40326;51.220;7.250;2023-01-10T07:49:33;20.60;;;6.70;;
54416;SDS011;40326;51.220;7.250;2023-01-10T07:51:59;28.45;;;6.70;;
54416;SDS011;40326;51.220;7.250;2023-01-10T07:54:24;23.60;;;6.70;;
54416;SDS011;40326;51.220;7.250;2023-01-10T07:56:49;27.10;;;6.20;;
54416;SDS011;40326;51.220;7.250;2023-01-10T07:59:14;24.75;;;6.93;;
54416;SDS011;40326;51.220;7.250;2023-01-10T08:01:39;23.85;;;6.43;;
54416;SDS011;40326;51.220;7.250;2023-01-10T08:04:05;22.30;;;6.05;;
54416;SDS011;40326;51.220;7.250;2023-01-10T08:06:30;24.40;;;7.35;;
54416;SDS011;40326;51.220;7.250;2023-01-10T08:08:55;26.45;;;6.95;;
54416;SDS011;40326;51.220;7.250;2023-01-10T08:11:21;22.23;;;6.97;;
54416;SDS011;40326;51.220;7.250;2023-01-10T08:13:46;20.98;;;6.80;;
54416;SDS011;40326;51.220;7.250;2023-01-10T08:16:11;20.02;;;6.10;;
54416;SDS011;40326;51.220;7.250;2023-01-10T08:18:36;21.00;;;7.22;;
54416;SDS011;40326;51.220;7.250;2023-01-10T08:21:06;18.65;;;6.55;;
54416;SDS011;40326;51.220;7.250;2023-01-10T08:23:31;23.42;;;6.82;;
54416;SDS011;40326;51.220;7.250;2023-01-10T08:25:57;20.92;;;6.40;;
54416;SDS011;40326;51.220;7.250;2023-01-10T08:28:22;27.40;;;8.30;;
54416;SDS011;40326;51.220;7.250;2023-01-10T08:30:47;22.67;;;6.38;;
54416;SDS011;40326;51.220;7.250;2023-01-10T08:33:12;21.27;;;6.63;;
54416;SDS011;40326;51.220;7.250;2023-01-10T08:35:39;20.88;;;7.35;;
54416;SDS011;40326;51.220;7.250;2023-01-10T08:38:04;26.70;;;7.18;;
54416;SDS011;40326;51.220;7.250;2023-01-10T08:40:29;20.05;;;7.30;;
54416;SDS011;40326;51.220;7.250;2023-01-10T08:42:56;23.30;;;7.00;;
54416;SDS011;40326;51.220;7.250;2023-01-10T08:45:21;17.05;;;6.50;;
54416;SDS011;40326;51.220;7.250;2023-01-10T08:47:46;18.65;;;6.50;;
54416;SDS011;40326;51.220;7.250;2023-01-10T08:50:11;21.07;;;6.70;;
54416;SDS011;40326;51.220;7.250;2023-01-10T08:52:36;29.08;;;6.90;;
54416;SDS011;40326;51.220;7.250;2023-01-10T08:55:02;15.90;;;6.50;;
54416;SDS011;40326;51.220;7.250;2023-01-10T08:57:27;24.48;;;6.85;;
54416;SDS011;40326;51.220;7.250;2023-01-10T08:59:52;21.95;;;6.47;;
54416;SDS011;40326;51.220;7.250;2023-01-10T09:02:17;22.50;;;7.43;;
54416;SDS011;40326;51.220;7.250;2023-01-10T09:04:42;27.00;;;6.70;;
54416;SDS011;40326;51.220;7.250;2023-01-10T09:07:08;20.55;;;6.63;;
54416;SDS011;40326;51.220;7.250;2023-01-10T09:09:33;19.55;;;5.72;;
54416;SDS011;40326;51.220;7.250;2023-01-10T09:11:58;23.00;;;7.57;;
54416;SDS011;40326;51.220;7.250;2023-01-10T09:14:23;27.60;;;7.43;;
54416;SDS011;40326;51.220;7.250;2023-01-10T09:16:48;23.23;;;6.55;;
54416;SDS011;40326;51.220;7.250;2023-01-10T09:19:15;21.42;;;5.57;;
54416;SDS011;40326;51.220;7.250;2023-01-10T09:21:40;21.88;;;5.63;;
54416;SDS011;40326;51.220;7.250;2023-01-10T09:24:06;23.75;;;5.28;;
54416;SDS011;40326;51.220;7.250;2023-01-10T09:26:31;29.35;;;6.40;;
54416;SDS011;40326;51.220;7.250;2023-01-10T09:28:56;25.33;;;6.38;;
54416;SDS011;40326;51.220;7.250;2023-01-10T09:31:21;23.75;;;5.68;;
54416;SDS011;40326;51.220;7.250;2023-01-10T09:33:46;21.63;;;6.27;;
54416;SDS011;40326;51.220;7.250;2023-01-10T09:36:13;23.27;;;5.85;;
54416;SDS011;40326;51.220;7.250;2023-01-10T09:38:39;21.23;;;6.60;;
54416;SDS011;40326;51.220;7.250;2023-01-10T09:46:21;25.58;;;5.95;;
54416;SDS011;40326;51.220;7.250;2023-01-10T09:51:27;29.40;;;6.50;;
54416;SDS011;40326;51.220;7.250;2023-01-10T09:53:54;21.65;;;5.45;;
54416;SDS011;40326;51.220;7.250;2023-01-10T09:56:21;20.48;;;5.40;;
54416;SDS011;40326;51.220;7.250;2023-01-10T09:58:46;22.13;;;5.93;;
54416;SDS011;40326;51.220;7.250;2023-01-10T10:01:21;19.30;;;4.63;;
54416;SDS011;40326;51.220;7.250;2023-01-10T10:03:53;21.80;;;5.35;;
54416;SDS011;40326;51.220;7.250;2023-01-10T10:06:23;28.50;;;5.70;;
54416;SDS011;40326;51.220;7.250;2023-01-10T10:08:48;22.80;;;4.80;;
54416;SDS011;40326;51.220;7.250;2023-01-10T10:18:52;17.98;;;4.50;;
54416;SDS011;40326;51.220;7.250;2023-01-10T10:21:27;18.42;;;4.43;;
54416;SDS011;40326;51.220;7.250;2023-01-10T10:23:59;20.35;;;4.28;;
54416;SDS011;40326;51.220;7.250;2023-01-10T10:29:22;19.15;;;5.65;;
54416;SDS011;40326;51.220;7.250;2023-01-10T10:31:56;15.27;;;4.22;;
54416;SDS011;40326;51.220;7.250;2023-01-10T10:34:24;13.75;;;4.10;;
54416;SDS011;40326;51.220;7.250;2023-01-10T10:36:53;16.27;;;4.78;;
54416;SDS011;40326;51.220;7.250;2023-01-10T10:39:25;21.48;;;4.90;;
54416;SDS011;40326;51.220;7.250;2023-01-10T10:41:54;17.55;;;4.88;;
54416;SDS011;40326;51.220;7.250;2023-01-10T10:46:46;21.57;;;4.60;;
54416;SDS011;40326;51.220;7.250;2023-01-10T10:49:17;18.77;;;4.70;;
54416;SDS011;40326;51.220;7.250;2023-01-10T10:51:46;20.42;;;4.32;;
54416;SDS011;40326;51.220;7.250;2023-01-10T10:54:14;14.80;;;4.20;;
54416;SDS011;40326;51.220;7.250;2023-01-10T10:56:40;22.55;;;4.80;;
54416;SDS011;40326;51.220;7.250;2023-01-10T10:59:06;21.17;;;4.82;;
54416;SDS011;40326;51.220;7.250;2023-01-10T11:01:31;15.88;;;4.65;;
54416;SDS011;40326;51.220;7.250;2023-01-10T11:03:57;15.02;;;4.90;;
54416;SDS011;40326;51.220;7.250;2023-01-10T11:06:23;22.70;;;4.40;;
54416;SDS011;40326;51.220;7.250;2023-01-10T11:08:49;17.77;;;4.40;;
54416;SDS011;40326;51.220;7.250;2023-01-10T11:11:24;20.02;;;4.03;;
54416;SDS011;40326;51.220;7.250;2023-01-10T11:13:52;14.48;;;4.10;;
54416;SDS011;40326;51.220;7.250;2023-01-10T11:16:28;18.65;;;4.55;;
54416;SDS011;40326;51.220;7.250;2023-01-10T11:19:14;17.65;;;4.68;;
54416;SDS011;40326;51.220;7.250;2023-01-10T11:21:41;15.93;;;3.75;;
54416;SDS011;40326;51.220;7.250;2023-01-10T11:24:29;14.93;;;3.53;;
54416;SDS011;40326;51.220;7.250;2023-01-10T11:26:55;13.75;;;3.95;;
54416;SDS011;40326;51.220;7.250;2023-01-10T11:29:25;16.88;;;3.28;;
54416;SDS011;40326;51.220;7.250;2023-01-10T11:31:52;13.48;;;3.92;;
54416;SDS011;40326;51.220;7.250;2023-01-10T11:36:50;13.47;;;3.40;;
54416;SDS011;40326;51.220;7.250;2023-01-10T11:39:15;18.13;;;3.85;;
54416;SDS011;40326;51.220;7.250;2023-01-10T11:41:41;13.35;;;2.90;;
54416;SDS011;40326;51.220;7.250;2023-01-10T11:44:16;12.95;;;3.67;;
54416;SDS011;40326;51.220;7.250;2023-01-10T11:46:44;11.98;;;3.35;;
54416;SDS011;40326;51.220;7.250;2023-01-10T11:49:11;12.45;;;3.42;;
54416;SDS011;40326;51.220;7.250;2023-01-10T11:51:44;18.83;;;3.97;;
54416;SDS011;40326;51.220;7.250;2023-01-10T11:56:37;13.52;;;3.88;;
54416;SDS011;40326;51.220;7.250;2023-01-10T11:59:08;12.90;;;2.97;;
54416;SDS011;40326;51.220;7.250;2023-01-10T12:01:47;12.32;;;3.03;;
54416;SDS011;40326;51.220;7.250;2023-01-10T12:04:17;17.75;;;3.35;;
54416;SDS011;40326;51.220;7.250;2023-01-10T12:06:45;12.45;;;3.25;;
54416;SDS011;40326;51.220;7.250;2023-01-10T12:09:31;17.15;;;3.20;;
54416;SDS011;40326;51.220;7.250;2023-01-10T12:12:04;10.05;;;2.90;;
54416;SDS011;40326;51.220;7.250;2023-01-10T12:14:29;17.40;;;3.70;;
54416;SDS011;40326;51.220;7.250;2023-01-10T12:16:58;10.68;;;2.65;;
54416;SDS011;40326;51.220;7.250;2023-01-10T12:19:24;9.95;;;2.63;;
54416;SDS011;40326;51.220;7.250;2023-01-10T12:21:50;15.65;;;3.50;;
54416;SDS011;40326;51.220;7.250;2023-01-10T12:24:22;14.85;;;3.25;;
54416;SDS011;40326;51.220;7.250;2023-01-10T12:26:49;15.43;;;4.03;;
54416;SDS011;40326;51.220;7.250;2023-01-10T12:29:18;15.50;;;3.33;;
54416;SDS011;40326;51.220;7.250;2023-01-10T12:31:45;14.07;;;3.03;;
54416;SDS011;40326;51.220;7.250;2023-01-10T12:34:14;16.45;;;3.97;;
54416;SDS011;40326;51.220;7.250;2023-01-10T12:36:42;11.00;;;2.53;;
54416;SDS011;40326;51.220;7.250;2023-01-10T12:39:54;10.25;;;2.80;;
54416;SDS011;40326;51.220;7.250;2023-01-10T12:42:03;15.40;;;3.00;;
54416;SDS011;40326;51.220;7.250;2023-01-10T12:44:56;16.10;;;3.38;;
54416;SDS011;40326;51.220;7.250;2023-01-10T12:47:28;13.45;;;3.30;;
54416;SDS011;40326;51.220;7.250;2023-01-10T12:55:29;12.02;;;3.00;;
54416;SDS011;40326;51.220;7.250;2023-01-10T12:58:02;11.85;;;3.10;;
54416;SDS011;40326;51.220;7.250;2023-01-10T13:00:29;12.50;;;3.60;;
54416;SDS011;40326;51.220;7.250;2023-01-10T13:02:56;13.60;;;3.00;;
54416;SDS011;40326;51.220;7.250;2023-01-10T13:05:24;11.73;;;3.05;;
54416;SDS011;40326;51.220;7.250;2023-01-10T13:07:49;16.00;;;3.47;;
54416;SDS011;40326;51.220;7.250;2023-01-10T13:10:16;13.35;;;3.17;;
54416;SDS011;40326;51.220;7.250;2023-01-10T13:12:42;11.70;;;2.42;;
54416;SDS011;40326;51.220;7.250;2023-01-10T13:18:17;12.23;;;2.50;;
54416;SDS011;40326;51.220;7.250;2023-01-10T13:20:28;15.75;;;3.10;;
54416;SDS011;40326;51.220;7.250;2023-01-10T13:22:54;13.35;;;2.72;;
54416;SDS011;40326;51.220;7.250;2023-01-10T13:25:30;10.88;;;2.25;;
54416;SDS011;40326;51.220;7.250;2023-01-10T13:30:30;9.85;;;2.60;;
54416;SDS011;40326;51.220;7.250;2023-01-10T13:33:00;14.90;;;3.33;;
54416;SDS011;40326;51.220;7.250;2023-01-10T13:35:27;11.35;;;2.35;;
54416;SDS011;40326;51.220;7.250;2023-01-10T13:40:26;10.32;;;2.50;;
54416;SDS011;40326;51.220;7.250;2023-01-10T13:45:44;13.65;;;2.65;;
54416;SDS011;40326;51.220;7.250;2023-01-10T13:48:22;10.43;;;2.72;;
54416;SDS011;40326;51.220;7.250;2023-01-10T13:50:49;8.77;;;2.30;;
54416;SDS011;40326;51.220;7.250;2023-01-10T14:00:47;12.68;;;3.00;;
54416;SDS011;40326;51.220;7.250;2023-01-10T14:03:45;11.77;;;2.75;;
54416;SDS011;40326;51.220;7.250;2023-01-10T14:08:45;16.10;;;2.83;;
54416;SDS011;40326;51.220;7.250;2023-01-10T14:11:12;15.05;;;3.15;;
54416;SDS011;40326;51.220;7.250;2023-01-10T14:13:37;10.50;;;2.38;;
54416;SDS011;40326;51.220;7.250;2023-01-10T14:16:32;12.13;;;3.00;;
54416;SDS011;40326;51.220;7.250;2023-01-10T14:18:55;11.38;;;2.40;;
54416;SDS011;40326;51.220;7.250;2023-01-10T14:21:22;11.85;;;3.00;;
54416;SDS011;40326;51.220;7.250;2023-01-10T14:23:48;12.70;;;3.35;;
54416;SDS011;40326;51.220;7.250;2023-01-10T14:26:25;13.55;;;2.65;;
54416;SDS011;40326;51.220;7.250;2023-01-10T14:28:53;13.77;;;2.95;;
54416;SDS011;40326;51.220;7.250;2023-01-10T14:31:20;14.65;;;3.28;;
54416;SDS011;40326;51.220;7.250;2023-01-10T14:33:45;15.30;;;2.85;;
54416;SDS011;40326;51.220;7.250;2023-01-10T14:36:15;12.68;;;3.33;;
54416;SDS011;40326;51.220;7.250;2023-01-10T14:38:41;14.13;;;2.83;;
54416;SDS011;40326;51.220;7.250;2023-01-10T14:41:30;13.52;;;2.72;;
54416;SDS011;40326;51.220;7.250;2023-01-10T14:43:58;10.82;;;2.75;;
54416;SDS011;40326;51.220;7.250;2023-01-10T14:46:26;9.32;;;2.67;;
54416;SDS011;40326;51.220;7.250;2023-01-10T14:48:52;9.93;;;2.42;;
54416;SDS011;40326;51.220;7.250;2023-01-10T14:51:21;11.10;;;2.85;;
54416;SDS011;40326;51.220;7.250;2023-01-10T14:53:52;13.93;;;3.25;;
54416;SDS011;40326;51.220;7.250;2023-01-10T14:56:23;11.30;;;3.00;;
54416;SDS011;40326;51.220;7.250;2023-01-10T14:58:48;10.70;;;2.65;;
54416;SDS011;40326;51.220;7.250;2023-01-10T15:01:15;15.02;;;2.95;;
54416;SDS011;40326;51.220;7.250;2023-01-10T15:03:45;12.13;;;2.80;;
54416;SDS011;40326;51.220;7.250;2023-01-10T15:06:11;17.83;;;3.60;;
54416;SDS011;40326;51.220;7.250;2023-01-10T15:08:36;16.45;;;2.80;;
54416;SDS011;40326;51.220;7.250;2023-01-10T15:11:04;11.07;;;2.70;;
54416;SDS011;40326;51.220;7.250;2023-01-10T15:13:32;12.88;;;2.97;;
54416;SDS011;40326;51.220;7.250;2023-01-10T15:15:58;8.95;;;3.08;;
54416;SDS011;40326;51.220;7.250;2023-01-10T15:18:31;11.40;;;2.97;;
54416;SDS011;40326;51.220;7.250;2023-01-10T15:23:22;12.18;;;3.05;;
54416;SDS011;40326;51.220;7.250;2023-01-10T15:25:57;15.30;;;2.88;;
54416;SDS011;40326;51.220;7.250;2023-01-10T15:28:24;8.82;;;2.60;;
54416;SDS011;40326;51.220;7.250;2023-01-10T15:30:51;9.15;;;2.58;;
54416;SDS011;40326;51.220;7.250;2023-01-10T15:33:22;8.60;;;3.15;;
54416;SDS011;40326;51.220;7.250;2023-01-10T15:35:49;12.77;;;3.10;;
54416;SDS011;40326;51.220;7.250;2023-01-10T15:38:15;10.80;;;3.45;;
54416;SDS011;40326;51.220;7.250;2023-01-10T15:40:40;8.30;;;2.88;;
54416;SDS011;40326;51.220;7.250;2023-01-10T15:45:46;14.15;;;2.75;;
54416;SDS011;40326;51.220;7.250;2023-01-10T15:51:13;12.57;;;3.67;;
54416;SDS011;40326;51.220;7.250;2023-01-10T15:56:16;17.73;;;3.80;;
54416;SDS011;40326;51.220;7.250;2023-01-10T15:58:43;15.10;;;3.05;;
54416;SDS011;40326;51.220;7.250;2023-01-10T16:01:11;17.83;;;3.55;;
54416;SDS011;40326;51.220;7.250;2023-01-10T16:03:37;12.05;;;3.28;;
54416;SDS011;40326;51.220;7.250;2023-01-10T16:06:03;12.18;;;3.42;;
54416;SDS011;40326;51.220;7.250;2023-01-10T16:08:33;13.55;;;3.30;;
54416;SDS011;40326;51.220;7.250;2023-01-10T16:11:00;13.88;;;4.05;;